createdAt,value
2023-02-19T00:01:12.842Z,14.45
2023-02-19T00:03:40.526Z,14.44
2023-02-19T00:06:10.025Z,14.44
2023-02-19T00:08:38.793Z,14.41
2023-02-19T00:11:08.509Z,14.39
2023-02-19T00:13:41.321Z,14.41
2023-02-19T00:16:14.680Z,14.42
2023-02-19T00:18:42.431Z,14.39
2023-02-19T00:21:09.412Z,14.39
2023-02-19T00:23:36.406Z,14.39
2023-02-19T00:26:17.572Z,14.35
2023-02-19T00:28:45.327Z,14.32
2023-02-19T00:31:19.845Z,14.30
2023-02-19T00:33:48.692Z,14.28
2023-02-19T00:36:15.775Z,14.27
2023-02-19T00:38:43.303Z,14.25
2023-02-19T00:41:20.170Z,14.22
2023-02-19T00:43:46.743Z,14.24
2023-02-19T00:46:13.527Z,14.21
2023-02-19T00:48:40.200Z,14.16
2023-02-19T00:51:06.950Z,14.14
2023-02-19T00:53:33.635Z,14.07
2023-02-19T00:56:00.335Z,14.01
2023-02-19T00:58:26.983Z,14.03
2023-02-19T01:00:53.645Z,13.97
2023-02-19T01:03:22.631Z,13.89
2023-02-19T01:05:50.752Z,13.89
2023-02-19T01:08:17.703Z,13.89
2023-02-19T01:10:44.500Z,13.86
2023-02-19T01:13:11.316Z,13.87
2023-02-19T01:15:38.282Z,13.87
2023-02-19T01:18:05.176Z,13.86
2023-02-19T01:20:31.812Z,13.86
2023-02-19T01:22:58.418Z,13.83
2023-02-19T01:25:25.074Z,13.80
2023-02-19T01:27:51.702Z,13.80
2023-02-19T01:30:18.447Z,13.80
2023-02-19T01:32:45.153Z,13.82
2023-02-19T01:35:11.785Z,13.83
2023-02-19T01:37:38.526Z,13.82
2023-02-19T01:40:05.485Z,13.84
2023-02-19T01:42:32.151Z,13.84
2023-02-19T01:45:29.851Z,13.82
2023-02-19T01:48:05.847Z,13.80
2023-02-19T01:50:38.759Z,13.80
2023-02-19T01:53:08.867Z,13.73
2023-02-19T01:55:36.188Z,13.73
2023-02-19T01:58:04.074Z,13.70
2023-02-19T02:00:32.371Z,13.73
2023-02-19T02:03:01.012Z,13.73
2023-02-19T02:05:46.456Z,13.76
2023-02-19T02:08:33.845Z,13.79
2023-02-19T02:11:00.970Z,13.77
2023-02-19T02:13:28.295Z,13.77
2023-02-19T02:16:30.357Z,13.74
2023-02-19T02:19:46.691Z,13.72
2023-02-19T02:22:36.962Z,13.70
2023-02-19T02:25:12.694Z,13.69
2023-02-19T02:27:57.756Z,13.69
2023-02-19T02:30:44.844Z,13.66
2023-02-19T02:33:20.340Z,13.66
2023-02-19T02:35:54.990Z,13.62
2023-02-19T02:38:26.061Z,13.61
2023-02-19T02:40:54.972Z,13.59
2023-02-19T02:43:22.046Z,13.56
2023-02-19T02:45:48.964Z,13.48
2023-02-19T02:48:30.453Z,13.45
2023-02-19T02:50:59.811Z,13.38
2023-02-19T02:53:55.317Z,13.32
2023-02-19T02:56:25.087Z,13.28
2023-02-19T02:58:53.985Z,13.22
2023-02-19T03:02:00.532Z,13.22
2023-02-19T03:04:27.199Z,13.25
2023-02-19T03:06:55.450Z,13.27
2023-02-19T03:09:40.723Z,13.27
2023-02-19T03:12:30.966Z,13.24
2023-02-19T03:15:21.487Z,13.18
2023-02-19T03:18:11.575Z,13.15
2023-02-19T03:20:43.252Z,13.17
2023-02-19T03:23:11.830Z,13.17
2023-02-19T03:25:58.520Z,13.12
2023-02-19T03:28:47.845Z,13.06
2023-02-19T03:31:19.641Z,13.07
2023-02-19T03:33:49.417Z,13.06
2023-02-19T03:36:16.426Z,13.01
2023-02-19T03:38:48.784Z,12.97
2023-02-19T03:41:36.721Z,12.94
2023-02-19T03:44:27.310Z,12.94
2023-02-19T03:47:03.487Z,12.96
2023-02-19T03:49:53.580Z,12.84
2023-02-19T03:52:22.979Z,12.83
2023-02-19T03:55:26.698Z,12.81
2023-02-19T03:58:08.525Z,12.80
2023-02-19T04:00:57.277Z,12.81
2023-02-19T04:03:44.357Z,12.81
2023-02-19T04:06:15.826Z,12.79
2023-02-19T04:08:48.232Z,12.75
2023-02-19T04:11:16.971Z,12.79
2023-02-19T04:13:48.531Z,12.76
2023-02-19T04:16:24.515Z,12.75
2023-02-19T04:18:55.564Z,12.76
2023-02-19T04:21:24.011Z,12.67
2023-02-19T04:23:51.339Z,12.66
2023-02-19T04:26:22.491Z,12.63
2023-02-19T04:28:49.103Z,12.62
2023-02-19T04:31:15.955Z,12.63
2023-02-19T04:33:42.589Z,12.60
2023-02-19T04:36:11.081Z,12.60
2023-02-19T04:38:38.131Z,12.52
2023-02-19T04:41:04.902Z,12.48
2023-02-19T04:43:31.517Z,12.42
2023-02-19T04:46:02.106Z,12.46
2023-02-19T04:48:29.073Z,12.49
2023-02-19T04:50:56.150Z,12.53
2023-02-19T04:53:22.911Z,12.53
2023-02-19T04:55:53.193Z,12.53
2023-02-19T04:58:20.478Z,12.56
2023-02-19T05:00:47.284Z,12.56
2023-02-19T05:03:13.996Z,12.55
2023-02-19T05:05:40.582Z,12.52
2023-02-19T05:08:07.266Z,12.49
2023-02-19T05:10:34.016Z,12.45
2023-02-19T05:13:00.632Z,12.44
2023-02-19T05:15:27.255Z,12.46
2023-02-19T05:17:53.880Z,12.45
2023-02-19T05:20:22.401Z,12.45
2023-02-19T05:22:49.079Z,12.44
2023-02-19T05:25:15.760Z,12.44
2023-02-19T05:27:42.367Z,12.41
2023-02-19T05:30:09.786Z,12.42
2023-02-19T05:32:36.596Z,12.44
2023-02-19T05:35:03.502Z,12.44
2023-02-19T05:37:30.316Z,12.42
2023-02-19T05:39:56.893Z,12.44
2023-02-19T05:42:23.617Z,12.41
2023-02-19T05:44:50.249Z,12.39
2023-02-19T05:47:16.853Z,12.35
2023-02-19T05:49:43.484Z,12.38
2023-02-19T05:52:10.156Z,12.35
2023-02-19T05:54:36.757Z,12.32
2023-02-19T05:57:03.412Z,12.29
2023-02-19T05:59:30.028Z,12.24
2023-02-19T06:01:58.260Z,12.18
2023-02-19T06:04:24.920Z,12.20
2023-02-19T06:06:51.534Z,12.15
2023-02-19T06:09:18.168Z,12.15
2023-02-19T06:11:44.819Z,12.14
2023-02-19T06:14:13.993Z,12.10
2023-02-19T06:16:41.482Z,12.05
2023-02-19T06:19:08.249Z,12.04
2023-02-19T06:21:35.060Z,12.04
2023-02-19T06:24:06.438Z,12.02
2023-02-19T06:26:33.365Z,11.99
2023-02-19T06:29:00.052Z,11.98
2023-02-19T06:31:26.748Z,11.95
2023-02-19T06:33:55.075Z,11.93
2023-02-19T06:36:22.377Z,11.91
2023-02-19T06:38:49.036Z,11.87
2023-02-19T06:41:15.928Z,11.84
2023-02-19T06:43:42.951Z,11.84
2023-02-19T06:46:11.682Z,11.88
2023-02-19T06:48:40.371Z,11.87
2023-02-19T06:51:07.537Z,11.91
2023-02-19T06:53:34.151Z,11.88
2023-02-19T06:56:03.760Z,11.84
2023-02-19T06:58:31.316Z,11.79
2023-02-19T07:00:58.233Z,11.80
2023-02-19T07:03:26.395Z,11.77
2023-02-19T07:05:53.593Z,11.73
2023-02-19T07:08:20.585Z,11.73
2023-02-19T07:10:55.558Z,11.83
2023-02-19T07:13:22.971Z,11.91
2023-02-19T07:15:51.762Z,11.99
2023-02-19T07:18:18.790Z,12.08
2023-02-19T07:20:45.529Z,12.11
2023-02-19T07:23:12.202Z,12.15
2023-02-19T07:25:39.396Z,12.17
2023-02-19T07:28:06.614Z,12.18
2023-02-19T07:30:33.531Z,12.20
2023-02-19T07:33:00.280Z,12.18
2023-02-19T07:35:27.144Z,12.21
2023-02-19T07:37:53.944Z,12.20
2023-02-19T07:40:20.685Z,12.17
2023-02-19T07:42:47.270Z,12.20
2023-02-19T07:45:13.965Z,12.18
2023-02-19T07:47:40.608Z,12.24
2023-02-19T07:50:07.725Z,12.28
2023-02-19T07:52:34.528Z,12.29
2023-02-19T07:55:01.271Z,12.38
2023-02-19T07:57:29.764Z,12.42
2023-02-19T07:59:56.918Z,12.48
2023-02-19T08:02:42.057Z,12.49
2023-02-19T08:05:08.920Z,12.50
2023-02-19T08:07:36.467Z,12.52
2023-02-19T08:10:22.770Z,12.56
2023-02-19T08:13:15.544Z,12.60
2023-02-19T08:15:42.191Z,12.63
2023-02-19T08:18:10.141Z,12.66
2023-02-19T08:20:37.007Z,12.72
2023-02-19T08:23:04.199Z,12.72
2023-02-19T08:25:30.970Z,12.79
2023-02-19T08:27:57.620Z,12.87
2023-02-19T08:30:24.371Z,12.94
2023-02-19T08:32:51.161Z,13.06
2023-02-19T08:35:17.920Z,13.18
2023-02-19T08:37:45.096Z,13.29
2023-02-19T08:40:12.739Z,13.41
2023-02-19T08:42:39.394Z,13.54
2023-02-19T08:45:06.368Z,13.69
2023-02-19T08:47:35.809Z,13.89
2023-02-19T08:50:05.029Z,13.97
2023-02-19T08:52:31.918Z,14.10
2023-02-19T08:54:58.887Z,14.17
2023-02-19T08:57:26.643Z,14.35
2023-02-19T08:59:53.803Z,14.59
2023-02-19T09:02:20.497Z,14.72
2023-02-19T09:04:47.149Z,14.87
2023-02-19T09:07:13.764Z,15.02
2023-02-19T09:09:40.686Z,15.26
2023-02-19T09:12:09.789Z,15.54
2023-02-19T09:14:37.569Z,15.81
2023-02-19T09:17:06.101Z,16.10
2023-02-19T09:19:33.335Z,16.38
2023-02-19T09:22:00.268Z,16.68
2023-02-19T09:24:27.001Z,17.00
2023-02-19T09:26:54.936Z,17.19
2023-02-19T09:29:26.463Z,17.37
2023-02-19T09:31:59.588Z,17.58
2023-02-19T09:34:27.949Z,17.82
2023-02-19T09:36:55.195Z,18.08
2023-02-19T09:39:22.163Z,18.30
2023-02-19T09:42:15.440Z,18.38
2023-02-19T09:44:45.480Z,18.26
2023-02-19T09:47:21.074Z,18.25
2023-02-19T09:49:51.354Z,18.40
2023-02-19T09:52:33.321Z,18.41
2023-02-19T09:55:10.300Z,18.27
2023-02-19T09:57:37.099Z,18.26
2023-02-19T10:00:24.850Z,18.40
2023-02-19T10:03:04.578Z,18.64
2023-02-19T10:05:32.523Z,18.88
2023-02-19T10:07:59.625Z,19.09
2023-02-19T10:10:35.176Z,19.29
2023-02-19T10:13:22.186Z,19.47
2023-02-19T10:15:52.361Z,19.56
2023-02-19T10:18:22.993Z,19.64
2023-02-19T10:20:52.060Z,19.71
2023-02-19T10:23:19.482Z,19.78
2023-02-19T10:25:54.350Z,19.92
2023-02-19T10:28:25.373Z,20.02
2023-02-19T10:30:56.130Z,20.12
2023-02-19T10:33:23.805Z,20.18
2023-02-19T10:36:05.663Z,20.25
2023-02-19T10:38:39.207Z,20.30
2023-02-19T10:41:07.614Z,20.26
2023-02-19T10:43:42.162Z,20.25
2023-02-19T10:46:18.979Z,20.25
2023-02-19T10:48:52.597Z,20.23
2023-02-19T10:51:23.048Z,20.21
2023-02-19T10:53:51.983Z,20.13
2023-02-19T10:56:26.933Z,19.96
2023-02-19T10:58:53.965Z,19.85
2023-02-19T11:01:27.112Z,19.87
2023-02-19T11:04:15.745Z,19.73
2023-02-19T11:06:42.417Z,19.54
2023-02-19T11:09:25.499Z,19.49
2023-02-19T11:11:54.351Z,19.45
2023-02-19T11:14:24.184Z,19.53
2023-02-19T11:16:56.444Z,19.70
2023-02-19T11:19:24.713Z,19.79
2023-02-19T11:21:52.121Z,19.95
2023-02-19T11:24:35.298Z,20.02
2023-02-19T11:27:05.387Z,20.09
2023-02-19T11:29:34.985Z,20.15
2023-02-19T11:32:37.099Z,20.08
2023-02-19T11:35:24.248Z,19.99
2023-02-19T11:37:59.602Z,19.98
2023-02-19T11:40:41.709Z,19.88
2023-02-19T11:43:26.743Z,19.92
2023-02-19T11:45:58.902Z,19.89
2023-02-19T11:48:56.367Z,19.82
2023-02-19T11:51:52.885Z,19.67
2023-02-19T11:54:49.302Z,19.64
2023-02-19T11:57:49.583Z,19.67
2023-02-19T12:00:42.255Z,19.70
2023-02-19T12:03:21.035Z,19.77
2023-02-19T12:06:32.224Z,19.81
2023-02-19T12:09:01.784Z,19.79
2023-02-19T12:11:38.951Z,19.82
2023-02-19T12:14:32.842Z,19.81
2023-02-19T12:17:04.507Z,19.81
2023-02-19T12:20:16.459Z,19.82
2023-02-19T12:22:48.891Z,19.84
2023-02-19T12:25:34.849Z,19.79
2023-02-19T12:28:12.668Z,19.81
2023-02-19T12:31:00.842Z,19.74
2023-02-19T12:34:04.905Z,19.71
2023-02-19T12:36:58.991Z,19.63
2023-02-19T12:39:40.936Z,19.58
2023-02-19T12:42:40.256Z,19.57
2023-02-19T12:45:18.404Z,19.51
2023-02-19T12:47:58.762Z,19.45
2023-02-19T12:50:27.831Z,19.45
2023-02-19T12:53:07.523Z,19.45
2023-02-19T12:55:39.225Z,19.31
2023-02-19T12:58:11.511Z,19.19
2023-02-19T13:00:44.281Z,19.13
2023-02-19T13:03:23.923Z,19.06
2023-02-19T13:06:13.763Z,19.11
2023-02-19T13:09:13.001Z,19.16
2023-02-19T13:12:02.311Z,19.15
2023-02-19T13:14:36.512Z,19.11
2023-02-19T13:17:28.751Z,19.09
2023-02-19T13:20:09.499Z,19.12
2023-02-19T13:23:01.212Z,19.16
2023-02-19T13:25:42.284Z,19.18
2023-02-19T13:28:26.886Z,19.18
2023-02-19T13:31:30.557Z,19.15
2023-02-19T13:34:15.196Z,19.13
2023-02-19T13:36:42.189Z,19.15
2023-02-19T13:41:50.485Z,19.23
2023-02-19T13:44:21.915Z,19.23
2023-02-19T13:46:49.777Z,19.27
2023-02-19T13:49:41.520Z,19.29
2023-02-19T13:52:29.668Z,19.33
2023-02-19T13:55:33.707Z,19.33
2023-02-19T13:58:34.110Z,19.34
2023-02-19T14:01:05.639Z,19.33
2023-02-19T14:04:06.525Z,19.37
2023-02-19T14:07:04.973Z,19.37
2023-02-19T14:09:34.415Z,19.37
2023-02-19T14:12:04.287Z,19.39
2023-02-19T14:14:44.137Z,19.39
2023-02-19T14:17:12.571Z,19.36
2023-02-19T14:19:42.003Z,19.34
2023-02-19T14:22:47.231Z,19.39
2023-02-19T14:25:29.513Z,19.40
2023-02-19T14:28:20.575Z,19.43
2023-02-19T14:31:01.124Z,19.49
2023-02-19T14:33:36.296Z,19.47
2023-02-19T14:36:10.103Z,19.50
2023-02-19T14:38:40.960Z,19.49
2023-02-19T14:41:12.562Z,19.51
2023-02-19T14:43:40.331Z,19.53
2023-02-19T14:46:22.763Z,19.53
2023-02-19T14:48:50.348Z,19.53
2023-02-19T14:51:41.610Z,19.54
2023-02-19T14:54:16.544Z,19.53
2023-02-19T14:56:47.320Z,19.51
2023-02-19T14:59:13.976Z,19.47
2023-02-19T15:01:41.005Z,19.46
2023-02-19T15:04:22.659Z,19.41
2023-02-19T15:06:49.713Z,19.40
2023-02-19T15:09:16.850Z,19.36
2023-02-19T15:11:43.999Z,19.34
2023-02-19T15:14:20.640Z,19.30
2023-02-19T15:16:47.859Z,19.24
2023-02-19T15:19:17.147Z,19.22
2023-02-19T15:21:47.594Z,19.16
2023-02-19T15:24:16.878Z,19.15
2023-02-19T15:26:51.933Z,19.12
2023-02-19T15:29:24.009Z,19.12
2023-02-19T15:31:56.849Z,19.08
2023-02-19T15:34:29.170Z,19.05
2023-02-19T15:37:00.311Z,19.05
2023-02-19T15:39:38.060Z,19.05
2023-02-19T15:42:07.911Z,19.05
2023-02-19T15:45:16.872Z,19.09
2023-02-19T15:47:49.370Z,19.09
2023-02-19T15:50:19.079Z,19.12
2023-02-19T15:53:07.166Z,19.12
2023-02-19T15:55:42.200Z,19.13
2023-02-19T15:58:17.810Z,19.16
2023-02-19T16:01:04.684Z,19.15
2023-02-19T16:03:32.294Z,19.16
2023-02-19T16:06:10.645Z,19.16
2023-02-19T16:08:39.616Z,19.16
2023-02-19T16:11:27.598Z,19.15
2023-02-19T16:14:17.094Z,19.16
2023-02-19T16:16:46.067Z,19.18
2023-02-19T16:19:12.908Z,19.15
2023-02-19T16:21:42.557Z,19.16
2023-02-19T16:24:32.564Z,19.15
2023-02-19T16:26:59.562Z,19.16
2023-02-19T16:29:30.106Z,19.11
2023-02-19T16:31:59.666Z,19.09
2023-02-19T16:34:47.271Z,19.06
2023-02-19T16:37:32.078Z,19.08
2023-02-19T16:40:07.539Z,19.05
2023-02-19T16:42:35.742Z,19.08
2023-02-19T16:45:02.661Z,19.05
2023-02-19T16:47:32.025Z,19.03
2023-02-19T16:50:01.781Z,19.01
2023-02-19T16:52:29.471Z,19.02
2023-02-19T16:54:56.110Z,18.98
2023-02-19T16:57:22.827Z,18.98
2023-02-19T16:59:49.537Z,18.94
2023-02-19T17:02:20.424Z,18.92
2023-02-19T17:04:49.063Z,18.91
2023-02-19T17:07:17.793Z,18.88
2023-02-19T17:09:44.576Z,18.84
2023-02-19T17:12:14.477Z,18.82
2023-02-19T17:14:41.577Z,18.81
2023-02-19T17:17:08.464Z,18.79
2023-02-19T17:19:35.172Z,18.75
2023-02-19T17:22:01.927Z,18.74
2023-02-19T17:24:28.552Z,18.68
2023-02-19T17:26:55.236Z,18.68
2023-02-19T17:29:24.644Z,18.63
2023-02-19T17:31:51.913Z,18.57
2023-02-19T17:34:18.693Z,18.56
2023-02-19T17:36:48.042Z,18.51
2023-02-19T17:39:15.504Z,18.48
2023-02-19T17:41:42.279Z,18.41
2023-02-19T17:44:09.033Z,18.38
2023-02-19T17:46:35.975Z,18.33
2023-02-19T17:49:02.617Z,18.32
2023-02-19T17:51:29.256Z,18.27
2023-02-19T17:53:55.872Z,18.26
2023-02-19T17:56:25.708Z,18.22
2023-02-19T17:58:52.676Z,18.19
2023-02-19T18:01:19.464Z,18.16
2023-02-19T18:03:46.193Z,18.12
2023-02-19T18:06:13.717Z,18.10
2023-02-19T18:08:45.910Z,18.08
2023-02-19T18:11:12.781Z,18.06
2023-02-19T18:13:39.636Z,18.05
2023-02-19T18:16:06.500Z,18.02
2023-02-19T18:18:33.179Z,17.98
2023-02-19T18:20:59.785Z,17.96
2023-02-19T18:23:26.623Z,17.95
2023-02-19T18:25:53.206Z,17.88
2023-02-19T18:28:19.813Z,17.86
2023-02-19T18:30:46.544Z,17.85
2023-02-19T18:33:13.458Z,17.83
2023-02-19T18:35:40.339Z,17.82
2023-02-19T18:38:07.090Z,17.78
2023-02-19T18:40:33.765Z,17.77
2023-02-19T18:43:00.504Z,17.72
2023-02-19T18:45:27.626Z,17.68
2023-02-19T18:47:54.334Z,17.65
2023-02-19T18:50:21.036Z,17.60
2023-02-19T18:52:47.868Z,17.57
2023-02-19T18:55:14.640Z,17.55
2023-02-19T18:57:41.309Z,17.55
2023-02-19T19:00:08.895Z,17.48
2023-02-19T19:02:48.350Z,17.44
2023-02-19T19:05:23.995Z,17.45
2023-02-19T19:07:52.653Z,17.44
2023-02-19T19:10:19.820Z,17.40
2023-02-19T19:12:46.893Z,17.40
2023-02-19T19:15:15.672Z,17.37
2023-02-19T19:17:43.762Z,17.33
2023-02-19T19:20:10.964Z,17.28
2023-02-19T19:22:38.047Z,17.27
2023-02-19T19:25:05.335Z,17.23
2023-02-19T19:27:31.973Z,17.17
2023-02-19T19:29:58.686Z,17.13
2023-02-19T19:32:25.406Z,17.13
2023-02-19T19:34:52.024Z,17.10
2023-02-19T19:37:18.705Z,17.10
2023-02-19T19:39:45.338Z,17.07
2023-02-19T19:42:11.951Z,17.05
2023-02-19T19:44:38.598Z,17.00
2023-02-19T19:47:05.265Z,16.99
2023-02-19T19:49:31.960Z,16.93
2023-02-19T19:52:01.140Z,16.90
2023-02-19T19:54:28.724Z,16.88
2023-02-19T19:56:55.657Z,16.85
2023-02-19T19:59:23.170Z,16.86
2023-02-19T20:01:57.028Z,16.83
2023-02-19T20:04:25.461Z,16.81
2023-02-19T20:06:52.572Z,16.76
2023-02-19T20:09:20.284Z,16.73
2023-02-19T20:11:49.658Z,16.73
2023-02-19T20:14:17.769Z,16.69
2023-02-19T20:16:44.895Z,16.68
2023-02-19T20:19:11.716Z,16.64
2023-02-19T20:21:38.330Z,16.64
2023-02-19T20:24:05.325Z,16.61
2023-02-19T20:26:32.076Z,16.62
2023-02-19T20:28:58.957Z,16.55
2023-02-19T20:31:25.918Z,16.50
2023-02-19T20:33:52.796Z,16.45
2023-02-19T20:36:20.274Z,16.40
2023-02-19T20:38:49.344Z,16.35
2023-02-19T20:41:16.029Z,16.33
2023-02-19T20:43:42.642Z,16.30
2023-02-19T20:46:09.548Z,16.27
2023-02-19T20:48:36.354Z,16.25
2023-02-19T20:51:03.379Z,16.18
2023-02-19T20:53:31.930Z,16.16
2023-02-19T20:55:58.740Z,16.17
2023-02-19T20:58:26.074Z,16.14
2023-02-19T21:00:55.883Z,16.12
2023-02-19T21:03:22.596Z,16.09
2023-02-19T21:05:49.265Z,16.09
2023-02-19T21:08:17.343Z,16.07
2023-02-19T21:10:45.698Z,16.03
2023-02-19T21:13:12.959Z,16.03
2023-02-19T21:15:39.730Z,15.97
2023-02-19T21:18:06.455Z,15.96
2023-02-19T21:20:33.194Z,15.90
2023-02-19T21:22:59.832Z,15.86
2023-02-19T21:25:26.721Z,15.82
2023-02-19T21:27:53.901Z,15.81
2023-02-19T21:30:20.500Z,15.79
2023-02-19T21:32:47.112Z,15.81
2023-02-19T21:35:13.679Z,15.78
2023-02-19T21:37:43.066Z,15.78
2023-02-19T21:40:11.081Z,15.79
2023-02-19T21:42:37.697Z,15.79
2023-02-19T21:45:04.681Z,15.75
2023-02-19T21:47:31.316Z,15.78
2023-02-19T21:49:57.967Z,15.78
2023-02-19T21:52:24.605Z,15.78
2023-02-19T21:54:51.380Z,15.75
2023-02-19T21:57:18.002Z,15.73
2023-02-19T21:59:44.587Z,15.69
2023-02-19T22:02:11.293Z,15.66
2023-02-19T22:04:37.932Z,15.61
2023-02-19T22:07:04.824Z,15.58
2023-02-19T22:09:31.465Z,15.57
2023-02-19T22:11:58.107Z,15.54
2023-02-19T22:14:24.720Z,15.54
2023-02-19T22:16:51.939Z,15.55
2023-02-19T22:19:18.544Z,15.48
2023-02-19T22:21:45.221Z,15.44
2023-02-19T22:24:20.416Z,15.41
2023-02-19T22:26:47.808Z,15.38
2023-02-19T22:29:15.478Z,15.32
2023-02-19T22:31:42.902Z,15.31
2023-02-19T22:34:09.877Z,15.24
2023-02-19T22:36:40.520Z,15.20
2023-02-19T22:39:15.121Z,15.20
2023-02-19T22:41:42.812Z,15.19
2023-02-19T22:44:10.715Z,15.13
2023-02-19T22:46:37.517Z,15.16
2023-02-19T22:49:06.300Z,15.08
2023-02-19T22:51:35.545Z,15.07
2023-02-19T22:54:05.207Z,15.03
2023-02-19T22:56:31.836Z,14.99
2023-02-19T22:58:59.109Z,14.99
2023-02-19T23:01:26.018Z,14.99
2023-02-19T23:04:01.151Z,14.96
2023-02-19T23:06:31.820Z,14.94
2023-02-19T23:09:03.512Z,14.94
2023-02-19T23:11:34.106Z,14.92
2023-02-19T23:14:00.765Z,14.86
2023-02-19T23:16:28.440Z,14.83
2023-02-19T23:18:55.607Z,14.79
2023-02-19T23:21:22.850Z,14.76
2023-02-19T23:23:49.646Z,14.75
2023-02-19T23:26:16.896Z,14.69
2023-02-19T23:28:44.398Z,14.69
2023-02-19T23:31:11.461Z,14.65
2023-02-19T23:33:38.666Z,14.65
2023-02-19T23:36:06.195Z,14.59
2023-02-19T23:38:32.882Z,14.61
2023-02-19T23:40:59.805Z,14.56
2023-02-19T23:43:26.544Z,14.55
2023-02-19T23:45:53.479Z,14.51
2023-02-19T23:48:20.350Z,14.49
2023-02-19T23:50:46.982Z,14.45
2023-02-19T23:53:13.626Z,14.42
2023-02-19T23:55:40.362Z,14.41
2023-02-19T23:58:06.998Z,14.38
